Time;durP1;ratioP1;P1;durP2;ratioP2;P2;SDS_P1;SDS_P2;PMS_P1;PMS_P2;Temp;Humidity;BMP_temperature;BMP_pressure;BME280_temperature;BME280_humidity;BME280_pressure;Samples;Min_cycle;Max_cycle;Signal;HPM_P1;HPM_P2
2021/07/17 00:03:57;;;;;;;3.40;3.10;;;22.80;39.00;;;;;;10447666;28;20208;-68
2021/07/17 00:09:16;;;;;;;3.70;3.40;;;22.70;39.50;;;;;;10452129;28;20227;-69
2021/07/17 00:14:19;;;;;;;3.63;3.43;;;22.70;39.30;;;;;;10440236;28;20284;-69
2021/07/17 00:19:24;;;;;;;4.00;3.70;;;22.70;39.30;;;;;;10454519;28;20239;-69
2021/07/17 00:24:27;;;;;;;3.63;3.33;;;22.70;39.90;;;;;;10448845;28;20598;-70
2021/07/17 00:29:30;;;;;;;4.10;3.77;;;22.70;39.50;;;;;;10453992;28;20228;-70
2021/07/17 00:34:35;;;;;;;3.87;3.67;;;22.70;39.50;;;;;;10436466;28;20229;-70
2021/07/17 00:39:38;;;;;;;3.80;3.53;;;22.70;40.10;;;;;;10446992;28;20251;-70
2021/07/17 00:44:41;;;;;;;4.40;4.10;;;22.80;39.70;;;;;;10446701;28;20221;-75
2021/07/17 00:49:46;;;;;;;4.80;4.30;;;22.80;39.70;;;;;;10435906;28;20287;-76
2021/07/17 00:54:51;;;;;;;4.30;3.90;;;22.80;40.30;;;;;;10451614;28;20233;-75
2021/07/17 00:59:57;;;;;;;4.23;3.93;;;22.80;40.30;;;;;;10441364;28;20600;-75
2021/07/17 01:05:02;;;;;;;4.43;4.13;;;22.70;40.60;;;;;;10436385;28;20224;-75
2021/07/17 01:10:07;;;;;;;4.50;4.20;;;22.70;40.50;;;;;;10443243;28;20216;-75
2021/07/17 01:15:11;;;;;;;4.43;4.13;;;22.60;40.40;;;;;;10440708;28;20232;-75
2021/07/17 01:20:20;;;;;;;4.97;4.43;;;22.70;40.50;;;;;;10444462;28;20748;-75
2021/07/17 01:25:26;;;;;;;5.47;3.87;;;22.60;41.30;;;;;;10448254;28;20236;-75
2021/07/17 01:30:32;;;;;;;4.03;3.73;;;22.60;41.20;;;;;;10438937;28;20755;-75
2021/07/17 01:35:35;;;;;;;4.70;4.40;;;22.60;40.90;;;;;;10432375;28;20236;-75
2021/07/17 01:40:40;;;;;;;4.20;3.97;;;22.50;40.60;;;;;;10446608;28;20220;-75
2021/07/17 01:45:45;;;;;;;3.90;3.60;;;22.40;41.10;;;;;;10436323;28;20232;-75
2021/07/17 01:50:48;;;;;;;4.53;4.13;;;22.30;40.90;;;;;;10439043;28;20307;-75
2021/07/17 01:55:53;;;;;;;4.27;3.87;;;22.30;41.00;;;;;;10440161;28;20229;-75
2021/07/17 02:00:56;;;;;;;6.00;4.60;;;22.30;41.40;;;;;;10438663;28;20218;-75
2021/07/17 02:05:59;;;;;;;5.07;4.67;;;22.20;41.00;;;;;;10443803;28;20224;-70
2021/07/17 02:11:05;;;;;;;5.00;4.60;;;22.20;41.00;;;;;;10445936;28;20217;-71
2021/07/17 02:16:09;;;;;;;4.97;4.67;;;22.10;41.90;;;;;;10446549;28;20221;-71
2021/07/17 02:21:14;;;;;;;6.13;5.60;;;22.10;41.40;;;;;;10444221;28;20312;-75
2021/07/17 02:26:19;;;;;;;5.63;5.13;;;22.00;41.70;;;;;;10441349;28;20232;-74
2021/07/17 02:31:22;;;;;;;6.07;5.57;;;22.00;42.90;;;;;;10448565;28;20245;-74
2021/07/17 02:36:25;;;;;;;6.20;5.70;;;22.00;41.70;;;;;;10450283;28;20299;-74
2021/07/17 02:41:30;;;;;;;5.97;5.57;;;22.00;41.80;;;;;;10446094;28;20744;-74
2021/07/17 02:46:34;;;;;;;7.03;6.40;;;22.00;42.50;;;;;;10454475;28;20591;-74
2021/07/17 02:51:37;;;;;;;6.90;6.37;;;22.00;42.50;;;;;;10448484;28;20586;-74
2021/07/17 02:56:41;;;;;;;6.60;6.00;;;21.90;42.30;;;;;;10446103;28;20251;-74
2021/07/17 03:01:45;;;;;;;6.53;6.03;;;21.90;43.20;;;;;;10456555;28;20229;-74
2021/07/17 03:06:48;;;;;;;6.93;6.43;;;21.90;42.70;;;;;;10449126;28;20232;-74
2021/07/17 03:11:53;;;;;;;7.53;6.93;;;21.90;42.90;;;;;;10440803;28;20241;-74
2021/07/17 03:16:57;;;;;;;7.63;7.03;;;21.80;43.70;;;;;;10449750;28;20221;-74
2021/07/17 03:22:00;;;;;;;6.93;6.43;;;21.80;43.10;;;;;;10445491;28;20221;-74
2021/07/17 03:27:06;;;;;;;6.93;6.30;;;21.80;43.10;;;;;;10454530;28;20268;-74
2021/07/17 03:32:10;;;;;;;7.40;6.80;;;21.80;43.80;;;;;;10442245;28;20229;-74
2021/07/17 03:37:13;;;;;;;7.60;7.00;;;21.80;43.20;;;;;;10446457;28;20228;-75
2021/07/17 03:42:18;;;;;;;7.97;7.37;;;21.80;43.20;;;;;;10443100;28;20236;-70
2021/07/17 03:47:21;;;;;;;8.20;7.57;;;21.80;44.00;;;;;;10445175;28;20237;-70
2021/07/17 03:52:24;;;;;;;9.50;8.70;;;21.80;43.50;;;;;;10458822;28;20231;-74
2021/07/17 03:57:29;;;;;;;8.90;8.20;;;21.70;43.60;;;;;;10454876;28;20732;-74
2021/07/17 04:02:39;;;;;;;9.20;8.50;;;21.70;44.40;;;;;;10453516;28;20233;-74
2021/07/17 04:07:44;;;;;;;9.83;9.00;;;21.70;44.00;;;;;;10447668;28;20278;-74
2021/07/17 04:12:48;;;;;;;9.17;8.30;;;21.70;44.50;;;;;;10448605;28;20705;-74
2021/07/17 04:17:52;;;;;;;9.70;8.90;;;21.80;44.90;;;;;;10448509;28;20222;-74
2021/07/17 04:22:55;;;;;;;9.83;8.93;;;21.70;44.20;;;;;;10447435;28;20599;-74
2021/07/17 04:28:00;;;;;;;10.23;9.33;;;21.70;44.30;;;;;;10437598;28;20214;-74
2021/07/17 04:33:03;;;;;;;9.97;9.17;;;21.80;45.20;;;;;;10446825;28;20689;-74
2021/07/17 04:38:06;;;;;;;10.30;9.37;;;21.70;44.50;;;;;;10444869;28;20228;-74
2021/07/17 04:43:11;;;;;;;10.37;9.47;;;21.70;44.60;;;;;;10445052;28;20221;-74
2021/07/17 04:48:14;;;;;;;11.03;9.80;;;21.70;45.20;;;;;;10446960;28;20224;-75
2021/07/17 04:53:17;;;;;;;10.70;9.53;;;21.70;44.90;;;;;;10442686;28;20689;-75
2021/07/17 04:58:22;;;;;;;9.73;8.90;;;21.70;45.00;;;;;;10445279;28;20231;-74
2021/07/17 05:03:25;;;;;;;9.77;8.97;;;21.70;45.60;;;;;;10456236;28;20241;-75
2021/07/17 05:08:28;;;;;;;11.13;10.13;;;21.70;45.30;;;;;;10439488;28;20312;-74
2021/07/17 05:13:34;;;;;;;11.47;10.37;;;21.70;45.50;;;;;;10444091;28;20228;-74
2021/07/17 05:18:37;;;;;;;11.77;10.77;;;21.80;46.30;;;;;;10446639;28;20227;-74
2021/07/17 05:23:40;;;;;;;11.03;9.90;;;21.80;45.70;;;;;;10437888;28;20905;-75
2021/07/17 05:28:45;;;;;;;12.40;11.20;;;21.80;45.80;;;;;;10450868;28;20221;-74
2021/07/17 05:33:48;;;;;;;12.77;11.60;;;21.80;46.70;;;;;;10439449;28;20227;-74
2021/07/17 05:38:51;;;;;;;12.77;11.67;;;21.80;46.10;;;;;;10443478;28;20239;-74
2021/07/17 05:43:55;;;;;;;12.03;10.87;;;21.80;46.30;;;;;;10438922;28;20613;-75
2021/07/17 05:48:59;;;;;;;12.97;11.77;;;21.90;47.30;;;;;;10440587;28;20596;-70
2021/07/17 05:54:02;;;;;;;13.07;11.77;;;21.90;46.60;;;;;;10445504;28;20231;-71
2021/07/17 05:59:06;;;;;;;14.43;13.17;;;21.90;47.00;;;;;;10445858;28;20229;-74
2021/07/17 06:04:09;;;;;;;13.90;12.57;;;22.00;47.70;;;;;;10447463;28;20743;-74
2021/07/17 06:09:12;;;;;;;12.97;11.77;;;22.00;47.10;;;;;;10451574;28;20231;-69
2021/07/17 06:14:17;;;;;;;14.53;13.03;;;22.10;47.10;;;;;;10444280;28;20232;-69
2021/07/17 06:19:20;;;;;;;13.83;12.53;;;22.10;48.00;;;;;;10453192;28;20226;-69
2021/07/17 06:24:23;;;;;;;14.57;13.13;;;22.20;47.30;;;;;;10451143;28;20236;-70
2021/07/17 06:29:28;;;;;;;14.60;13.20;;;22.30;47.30;;;;;;10444628;28;20232;-70
2021/07/17 06:34:31;;;;;;;13.73;12.53;;;22.30;47.80;;;;;;10443294;28;20235;-70
2021/07/17 06:39:34;;;;;;;14.03;12.80;;;22.40;47.40;;;;;;10449919;28;20708;-70
2021/07/17 06:44:39;;;;;;;14.33;13.10;;;22.40;47.40;;;;;;10453346;28;20221;-70
2021/07/17 06:49:42;;;;;;;14.30;13.00;;;22.50;47.90;;;;;;10445685;28;20232;-70
2021/07/17 06:54:45;;;;;;;14.63;13.23;;;22.50;47.70;;;;;;10450119;28;20225;-70
2021/07/17 06:59:49;;;;;;;13.53;12.23;;;22.60;47.70;;;;;;10443955;28;20232;-70
2021/07/17 07:04:53;;;;;;;13.20;11.90;;;22.70;48.10;;;;;;10453278;28;20236;-71
2021/07/17 07:09:56;;;;;;;13.27;11.97;;;22.80;47.60;;;;;;10454290;28;20233;-70
2021/07/17 07:15:00;;;;;;;16.30;12.20;;;22.90;47.50;;;;;;10449393;28;20705;-70
2021/07/17 07:20:04;;;;;;;13.50;12.20;;;23.00;47.60;;;;;;10450238;28;20255;-71
2021/07/17 07:25:11;;;;;;;12.77;11.60;;;23.10;47.20;;;;;;10446294;28;20222;-71
2021/07/17 07:30:17;;;;;;;12.03;10.83;;;23.20;47.20;;;;;;10444234;28;20225;-74
2021/07/17 07:35:24;;;;;;;12.40;11.03;;;23.30;47.20;;;;;;10450857;28;20257;-71
2021/07/17 07:40:29;;;;;;;12.37;11.17;;;23.40;47.10;;;;;;10452319;28;20255;-71
2021/07/17 07:45:34;;;;;;;12.43;11.33;;;23.50;46.90;;;;;;10446925;28;20705;-71
2021/07/17 07:50:37;;;;;;;12.23;11.13;;;23.60;46.90;;;;;;10455930;28;20232;-69
2021/07/17 07:55:41;;;;;;;12.20;11.10;;;23.70;46.70;;;;;;10443185;28;20574;-73
2021/07/17 08:00:45;;;;;;;12.37;11.27;;;23.80;46.80;;;;;;10452113;28;20236;-75
2021/07/17 08:05:48;;;;;;;11.50;10.50;;;23.90;46.60;;;;;;10448723;28;20221;-75
2021/07/17 08:10:52;;;;;;;11.80;10.73;;;23.90;46.20;;;;;;10442911;28;20316;-75
2021/07/17 08:15:59;;;;;;;11.80;10.70;;;24.00;46.00;;;;;;10452638;28;20228;-73
2021/07/17 08:21:02;;;;;;;12.00;10.90;;;24.10;46.20;;;;;;10448281;28;20209;-74
2021/07/17 08:26:06;;;;;;;11.37;10.37;;;24.10;45.80;;;;;;10443805;28;20729;-74
2021/07/17 08:31:10;;;;;;;11.40;10.37;;;24.20;45.60;;;;;;10445085;28;20233;-74
2021/07/17 08:36:14;;;;;;;11.63;10.60;;;24.30;45.60;;;;;;10445122;28;20279;-74
2021/07/17 08:41:21;;;;;;;12.27;11.17;;;24.30;45.50;;;;;;10450735;28;20224;-75
2021/07/17 08:46:27;;;;;;;11.10;10.13;;;24.30;45.30;;;;;;10450464;28;20232;-74
2021/07/17 08:51:30;;;;;;;10.63;9.70;;;24.30;45.20;;;;;;10449180;28;20225;-70
2021/07/17 08:56:34;;;;;;;11.20;10.10;;;24.20;45.30;;;;;;10443666;28;20595;-70
2021/07/17 09:01:39;;;;;;;11.20;10.17;;;24.20;45.20;;;;;;10445607;28;20788;-70
2021/07/17 09:06:42;;;;;;;11.50;10.40;;;24.20;45.20;;;;;;10453679;28;20221;-75
2021/07/17 09:11:46;;;;;;;10.87;9.90;;;24.20;45.10;;;;;;10440973;28;20240;-74
2021/07/17 09:17:00;;;;;;;10.80;9.77;;;24.20;45.30;;;;;;10447735;28;20262;-74
2021/07/17 09:22:04;;;;;;;11.60;10.43;;;24.10;45.40;;;;;;10434543;28;20225;-73
2021/07/17 09:27:07;;;;;;;13.30;10.97;;;24.10;45.30;;;;;;10424594;28;20232;-74
2021/07/17 09:32:16;;;;;;;11.83;10.83;;;24.10;45.20;;;;;;10426784;28;20227;-75
2021/07/17 09:37:23;;;;;;;13.00;11.67;;;24.10;46.30;;;;;;10439058;28;20589;-74
2021/07/17 09:42:26;;;;;;;12.87;11.60;;;24.10;45.50;;;;;;10441352;28;20240;-73
2021/07/17 09:47:31;;;;;;;12.60;11.50;;;24.10;45.40;;;;;;10440742;28;20232;-74
2021/07/17 09:52:41;;;;;;;12.83;11.63;;;24.10;45.40;;;;;;10437782;28;20228;-68
2021/07/17 09:57:45;;;;;;;12.70;11.50;;;24.20;45.40;;;;;;10439931;28;20247;-68
2021/07/17 10:02:50;;;;;;;13.57;12.17;;;24.20;45.60;;;;;;10453855;28;20594;-69
2021/07/17 10:08:09;;;;;;;15.80;14.17;;;24.30;45.20;;;;;;10452409;28;20222;-69
2021/07/17 10:13:12;;;;;;;14.23;12.83;;;24.30;45.10;;;;;;10447812;28;20219;-69
2021/07/17 10:18:25;;;;;;;14.00;12.80;;;24.30;45.10;;;;;;10453278;28;20604;-69
2021/07/17 10:23:29;;;;;;;13.83;12.43;;;24.30;45.00;;;;;;10450673;28;20232;-69
2021/07/17 10:28:33;;;;;;;13.40;12.10;;;24.30;45.10;;;;;;10449281;28;20229;-70
2021/07/17 10:33:37;;;;;;;13.80;12.53;;;24.30;45.50;;;;;;10459561;28;20233;-69
2021/07/17 10:38:44;;;;;;;13.90;12.60;;;24.40;45.60;;;;;;10447155;28;20217;-73
2021/07/17 10:43:51;;;;;;;14.70;13.47;;;24.50;45.10;;;;;;10447980;28;20724;-73
2021/07/17 10:48:57;;;;;;;13.37;12.17;;;24.50;44.50;;;;;;10447356;28;20229;-73
2021/07/17 10:54:03;;;;;;;12.57;11.37;;;24.50;44.80;;;;;;10451534;28;20221;-73
2021/07/17 10:59:10;;;;;;;12.53;11.43;;;24.60;45.00;;;;;;10445404;28;20217;-73
2021/07/17 11:04:37;;;;;;;12.33;11.10;;;24.70;44.80;;;;;;10447470;28;20213;-73
2021/07/17 11:09:49;;;;;;;12.67;11.47;;;24.70;44.30;;;;;;10445010;28;20250;-73
2021/07/17 11:14:54;;;;;;;11.87;10.90;;;24.80;44.40;;;;;;10441910;28;20717;-73
2021/07/17 11:20:17;;;;;;;12.30;11.20;;;24.80;44.40;;;;;;10448885;28;20823;-73
2021/07/17 11:25:20;;;;;;;11.33;10.23;;;24.90;44.50;;;;;;10444987;28;20226;-73
2021/07/17 11:30:24;;;;;;;11.20;10.13;;;25.10;44.70;;;;;;10449746;28;20233;-73
2021/07/17 11:35:29;;;;;;;11.83;10.63;;;25.20;44.10;;;;;;10441283;28;20461;-73
2021/07/17 11:40:33;;;;;;;10.70;9.70;;;25.30;43.40;;;;;;10445858;28;20228;-73
2021/07/17 11:45:37;;;;;;;10.77;9.77;;;25.30;43.80;;;;;;10443068;28;20236;-73
2021/07/17 11:50:43;;;;;;;11.60;10.50;;;25.40;43.80;;;;;;10439856;28;20259;-73
2021/07/17 11:55:59;;;;;;;11.40;10.23;;;25.40;43.60;;;;;;10450908;28;20227;-73
2021/07/17 12:01:03;;;;;;;10.63;9.73;;;25.40;43.20;;;;;;10444781;28;20582;-72
2021/07/17 12:06:07;;;;;;;10.30;9.37;;;25.40;43.40;;;;;;10443950;28;20231;-72
2021/07/17 12:11:15;;;;;;;9.87;9.07;;;25.40;43.60;;;;;;10444050;28;20231;-73
2021/07/17 12:16:22;;;;;;;10.40;9.40;;;25.40;42.90;;;;;;10454027;28;20315;-73
2021/07/17 12:21:30;;;;;;;10.27;9.27;;;25.40;43.80;;;;;;10446643;28;20311;-73
2021/07/17 12:26:33;;;;;;;9.83;8.93;;;25.40;43.20;;;;;;10447844;28;20747;-73
2021/07/17 12:31:36;;;;;;;10.90;9.17;;;25.50;43.40;;;;;;10441121;28;20229;-69
2021/07/17 12:36:43;;;;;;;9.93;9.03;;;25.50;43.50;;;;;;10454366;28;20231;-70
2021/07/17 12:41:46;;;;;;;9.67;8.77;;;25.60;43.10;;;;;;10442726;28;20229;-70
2021/07/17 12:46:50;;;;;;;10.57;9.47;;;25.70;43.20;;;;;;10442044;28;20623;-69
2021/07/17 12:51:55;;;;;;;9.77;8.87;;;25.80;43.90;;;;;;10447944;28;20229;-70
2021/07/17 12:57:00;;;;;;;9.73;8.83;;;25.80;42.40;;;;;;10442250;28;20229;-74
2021/07/17 13:02:08;;;;;;;9.90;9.10;;;25.90;42.40;;;;;;10441119;28;20227;-73
2021/07/17 13:07:14;;;;;;;10.73;9.77;;;25.90;42.40;;;;;;10447537;28;20216;-73
2021/07/17 13:12:26;;;;;;;10.00;9.10;;;25.90;42.30;;;;;;10448448;28;20599;-68
2021/07/17 13:17:33;;;;;;;9.47;8.67;;;25.80;42.30;;;;;;10451041;28;20242;-68
2021/07/17 13:22:40;;;;;;;9.53;8.63;;;25.80;42.20;;;;;;10449030;28;20236;-74
2021/07/17 13:27:43;;;;;;;9.57;8.20;;;25.80;42.40;;;;;;10446858;28;20231;-74
2021/07/17 13:32:47;;;;;;;9.23;8.43;;;25.70;42.60;;;;;;10443423;28;20236;-73
2021/07/17 13:38:04;;;;;;;10.50;9.50;;;25.80;42.60;;;;;;10445814;28;20981;-73
2021/07/17 13:43:09;;;;;;;9.90;9.00;;;25.80;42.20;;;;;;10429327;28;20228;-73
2021/07/17 13:48:18;;;;;;;10.80;9.90;;;25.80;42.30;;;;;;10424208;28;20217;-73
2021/07/17 13:53:23;;;;;;;11.17;10.07;;;25.70;42.60;;;;;;10432960;28;20240;-73
2021/07/17 13:58:28;;;;;;;10.47;9.30;;;25.70;42.40;;;;;;10433499;28;20652;-68
2021/07/17 14:03:33;;;;;;;10.27;9.37;;;25.60;42.50;;;;;;10441342;28;20314;-68
2021/07/17 14:08:40;;;;;;;10.37;9.37;;;25.60;42.80;;;;;;10436822;28;20697;-68
2021/07/17 14:13:44;;;;;;;10.47;9.57;;;25.60;43.00;;;;;;10442178;28;20229;-74
2021/07/17 14:18:48;;;;;;;11.60;10.50;;;25.60;42.90;;;;;;10433005;28;20275;-73
2021/07/17 14:23:53;;;;;;;10.47;9.67;;;25.70;42.70;;;;;;10435227;28;20261;-73
2021/07/17 14:28:56;;;;;;;10.90;9.80;;;25.60;42.40;;;;;;10443526;28;20240;-73
2021/07/17 14:34:04;;;;;;;11.03;9.97;;;25.50;42.40;;;;;;10447796;28;20232;-73
2021/07/17 14:39:09;;;;;;;10.40;9.50;;;25.40;42.60;;;;;;10454201;28;20223;-73
2021/07/17 14:44:12;;;;;;;9.63;8.83;;;25.20;42.70;;;;;;10446435;28;20255;-73
2021/07/17 14:49:16;;;;;;;10.13;9.10;;;25.10;43.00;;;;;;10445363;28;20359;-73
2021/07/17 14:54:21;;;;;;;9.33;8.50;;;25.10;43.20;;;;;;10454928;28;20637;-73
2021/07/17 14:59:25;;;;;;;10.30;9.30;;;25.10;43.40;;;;;;10452466;28;20267;-73
2021/07/17 15:04:29;;;;;;;9.03;8.33;;;25.10;43.20;;;;;;10455219;28;20217;-73
2021/07/17 15:09:34;;;;;;;8.80;8.07;;;25.10;43.40;;;;;;10442248;28;20239;-73
2021/07/17 15:14:38;;;;;;;8.70;7.90;;;25.10;43.60;;;;;;10448458;28;20251;-70
2021/07/17 15:19:41;;;;;;;9.73;8.13;;;25.20;43.50;;;;;;10454995;28;20239;-70
2021/07/17 15:24:45;;;;;;;8.93;8.13;;;25.20;43.70;;;;;;10445799;28;20227;-70
2021/07/17 15:30:06;;;;;;;8.40;7.60;;;25.20;44.40;;;;;;10433778;28;20771;-70
2021/07/17 15:35:10;;;;;;;8.60;7.87;;;25.20;43.60;;;;;;10438261;28;20212;-74
2021/07/17 15:40:15;;;;;;;8.13;7.33;;;25.20;43.70;;;;;;10438172;28;20232;-74
2021/07/17 15:45:20;;;;;;;7.70;7.00;;;25.20;43.80;;;;;;10437821;28;20213;-73
2021/07/17 15:50:25;;;;;;;7.83;7.20;;;25.30;43.60;;;;;;10443794;28;20229;-73
2021/07/17 15:55:30;;;;;;;7.63;7.03;;;25.30;43.80;;;;;;10438923;28;20233;-68
2021/07/17 16:00:33;;;;;;;8.50;7.80;;;25.40;44.00;;;;;;10441077;28;20236;-68
2021/07/17 16:05:38;;;;;;;8.63;7.93;;;25.40;43.80;;;;;;10435919;28;20593;-68
2021/07/17 16:10:43;;;;;;;8.13;7.50;;;25.40;43.90;;;;;;10428898;28;20303;-68
2021/07/17 16:15:46;;;;;;;9.07;8.37;;;25.40;43.90;;;;;;10427415;28;20795;-68
2021/07/17 16:20:49;;;;;;;9.13;8.33;;;25.40;43.60;;;;;;10435568;28;20242;-68
2021/07/17 16:25:54;;;;;;;9.27;8.37;;;25.40;43.70;;;;;;10431881;28;20832;-68
2021/07/17 16:30:57;;;;;;;8.67;7.97;;;25.30;44.10;;;;;;10432748;28;20733;-68
2021/07/17 16:36:00;;;;;;;8.97;8.17;;;25.30;44.00;;;;;;10437008;28;20216;-68
2021/07/17 16:41:05;;;;;;;10.00;9.10;;;25.30;44.00;;;;;;10439003;28;20220;-70
2021/07/17 16:46:11;;;;;;;9.20;8.30;;;25.30;44.20;;;;;;10431448;28;20221;-70
2021/07/17 16:51:14;;;;;;;9.77;8.77;;;25.40;44.40;;;;;;10430708;28;20282;-68
2021/07/17 16:56:19;;;;;;;9.27;8.50;;;25.40;44.30;;;;;;10438322;28;20234;-67
2021/07/17 17:01:22;;;;;;;9.93;9.03;;;25.50;44.30;;;;;;10441464;28;20690;-68
2021/07/17 17:06:25;;;;;;;10.43;9.40;;;25.50;44.10;;;;;;10433445;28;20976;-68
2021/07/17 17:11:30;;;;;;;9.93;9.13;;;25.60;44.00;;;;;;10446655;28;20233;-68
2021/07/17 17:16:33;;;;;;;9.73;8.83;;;25.60;44.10;;;;;;10451630;28;20240;-74
2021/07/17 17:21:36;;;;;;;10.60;9.60;;;25.60;44.10;;;;;;10447484;28;20238;-74
2021/07/17 17:26:41;;;;;;;10.90;10.00;;;25.60;44.20;;;;;;10452158;28;20240;-75
2021/07/17 17:31:44;;;;;;;10.97;9.97;;;25.60;44.30;;;;;;10446555;28;20232;-74
2021/07/17 17:36:48;;;;;;;10.20;9.40;;;25.60;44.30;;;;;;10442438;28;20221;-75
2021/07/17 17:41:53;;;;;;;11.33;10.33;;;25.60;44.30;;;;;;10444729;28;20615;-69
2021/07/17 17:46:58;;;;;;;10.27;9.37;;;25.60;44.20;;;;;;10444041;28;20597;-69
2021/07/17 17:52:01;;;;;;;10.30;9.40;;;25.70;44.10;;;;;;10454921;28;20229;-69
2021/07/17 17:57:09;;;;;;;10.07;9.23;;;25.70;44.00;;;;;;10442644;28;20227;-73
2021/07/17 18:02:13;;;;;;;9.77;9.03;;;25.60;44.00;;;;;;10460688;28;20715;-74
2021/07/17 18:07:17;;;;;;;10.07;9.27;;;25.60;43.80;;;;;;10450430;28;20235;-73
2021/07/17 18:12:22;;;;;;;9.90;9.20;;;25.60;43.70;;;;;;10456816;28;20237;-73
2021/07/17 18:17:25;;;;;;;9.60;8.80;;;25.60;43.80;;;;;;10462091;28;20225;-70
2021/07/17 18:22:28;;;;;;;9.37;8.60;;;25.50;43.60;;;;;;10457391;28;20283;-70
2021/07/17 18:27:34;;;;;;;9.37;8.67;;;25.50;43.70;;;;;;10467903;28;20225;-70
2021/07/17 18:32:37;;;;;;;8.70;8.00;;;25.40;43.80;;;;;;10451075;28;20225;-74
2021/07/17 18:37:42;;;;;;;8.70;8.00;;;25.40;43.80;;;;;;10451208;28;20240;-75
2021/07/17 18:42:48;;;;;;;8.40;7.60;;;25.40;43.80;;;;;;10458076;28;20225;-75
2021/07/17 18:47:52;;;;;;;8.17;7.47;;;25.30;43.80;;;;;;10449059;28;20236;-75
2021/07/17 18:52:55;;;;;;;8.10;7.50;;;25.30;43.80;;;;;;10456396;28;20233;-75
2021/07/17 18:58:00;;;;;;;8.00;7.40;;;25.30;43.70;;;;;;10454726;28;20244;-75
2021/07/17 19:03:03;;;;;;;7.60;6.90;;;25.30;43.80;;;;;;10445942;28;20226;-69
2021/07/17 19:08:07;;;;;;;7.37;6.80;;;25.20;43.60;;;;;;10449919;28;20270;-68
2021/07/17 19:13:11;;;;;;;7.60;6.90;;;25.20;43.70;;;;;;10456468;28;20237;-68
2021/07/17 19:18:15;;;;;;;7.50;6.90;;;25.20;43.70;;;;;;10460435;28;20221;-68
2021/07/17 19:23:18;;;;;;;8.03;7.43;;;25.20;43.70;;;;;;10455668;28;20229;-68
2021/07/17 19:28:23;;;;;;;7.67;7.07;;;25.20;43.70;;;;;;10454355;28;20243;-68
2021/07/17 19:33:26;;;;;;;8.17;7.47;;;25.20;43.70;;;;;;10446271;28;20606;-68
2021/07/17 19:38:29;;;;;;;7.60;7.00;;;25.10;43.60;;;;;;10441659;28;20723;-74
2021/07/17 19:43:34;;;;;;;8.03;7.43;;;25.10;43.70;;;;;;10438537;28;20224;-73
2021/07/17 19:48:37;;;;;;;7.80;7.20;;;25.10;43.80;;;;;;10444406;28;20303;-73
2021/07/17 19:53:40;;;;;;;7.97;7.37;;;25.10;43.80;;;;;;10444341;28;20225;-73
2021/07/17 19:58:45;;;;;;;8.50;7.87;;;25.00;43.80;;;;;;10439614;28;20239;-73
2021/07/17 20:03:48;;;;;;;9.60;8.60;;;25.00;44.00;;;;;;10439863;28;20224;-73
2021/07/17 20:08:52;;;;;;;9.50;8.70;;;25.00;43.80;;;;;;10443300;28;20235;-73
2021/07/17 20:13:56;;;;;;;8.37;7.67;;;24.90;43.80;;;;;;10439086;28;20241;-73
2021/07/17 20:19:00;;;;;;;9.13;8.33;;;24.90;44.10;;;;;;10437699;28;20236;-73
2021/07/17 20:24:03;;;;;;;8.50;7.90;;;24.90;44.10;;;;;;10440786;28;20235;-73
2021/07/17 20:29:07;;;;;;;8.93;8.03;;;24.90;44.10;;;;;;10437654;28;20232;-73
2021/07/17 20:34:10;;;;;;;9.33;8.63;;;24.90;44.40;;;;;;10437990;28;20247;-73
2021/07/17 20:39:14;;;;;;;10.47;9.47;;;24.80;44.10;;;;;;10439177;28;20228;-73
2021/07/17 20:44:18;;;;;;;9.93;9.00;;;24.80;44.20;;;;;;10434881;28;20774;-73
2021/07/17 20:49:21;;;;;;;10.53;9.30;;;24.70;44.50;;;;;;10440547;28;20236;-73
2021/07/17 20:54:25;;;;;;;9.17;8.47;;;24.70;44.50;;;;;;10428221;28;20233;-73
2021/07/17 20:59:30;;;;;;;9.53;8.73;;;24.60;44.50;;;;;;10427041;28;20900;-73
2021/07/17 21:04:33;;;;;;;10.60;9.80;;;24.60;44.90;;;;;;10437006;28;20228;-73
2021/07/17 21:09:36;;;;;;;10.20;9.30;;;24.60;44.70;;;;;;10442480;28;20320;-74
2021/07/17 21:14:41;;;;;;;10.30;9.20;;;24.60;44.70;;;;;;10451202;28;20601;-74
2021/07/17 21:19:44;;;;;;;10.43;9.63;;;24.60;44.90;;;;;;10444940;28;20225;-74
2021/07/17 21:24:47;;;;;;;11.40;10.40;;;24.70;44.80;;;;;;10445119;28;20233;-74
2021/07/17 21:29:52;;;;;;;12.27;11.20;;;24.70;44.70;;;;;;10452057;28;20724;-74
2021/07/17 21:34:55;;;;;;;11.40;10.50;;;24.60;44.90;;;;;;10455481;28;20225;-74
2021/07/17 21:39:58;;;;;;;12.20;11.10;;;24.50;44.70;;;;;;10448559;28;20233;-74
2021/07/17 21:45:04;;;;;;;11.43;10.47;;;24.50;44.90;;;;;;10445484;28;20660;-72
2021/07/17 21:50:09;;;;;;;11.07;10.10;;;24.50;45.40;;;;;;10434263;28;20236;-74
2021/07/17 21:55:15;;;;;;;11.67;10.60;;;24.50;45.20;;;;;;10427031;28;20220;-74
2021/07/17 22:00:30;;;;;;;12.00;10.97;;;24.50;45.20;;;;;;10431153;28;20221;-74
2021/07/17 22:05:34;;;;;;;11.87;10.77;;;24.50;45.80;;;;;;10430941;28;20224;-74
2021/07/17 22:10:37;;;;;;;11.77;10.80;;;24.40;45.40;;;;;;10440871;28;20985;-74
2021/07/17 22:15:42;;;;;;;11.57;10.67;;;24.40;45.50;;;;;;10449275;28;20233;-74
2021/07/17 22:20:46;;;;;;;11.67;10.60;;;24.40;46.10;;;;;;10443682;28;20232;-74
2021/07/17 22:25:49;;;;;;;12.33;11.13;;;24.30;45.80;;;;;;10441522;28;20217;-73
2021/07/17 22:30:54;;;;;;;12.53;11.43;;;24.20;45.80;;;;;;10447012;28;20239;-74
2021/07/17 22:35:57;;;;;;;13.70;11.37;;;24.20;46.40;;;;;;10443483;28;20231;-75
2021/07/17 22:41:02;;;;;;;13.80;12.50;;;24.10;46.00;;;;;;10447979;28;20247;-74
2021/07/17 22:46:06;;;;;;;13.23;12.03;;;24.00;46.50;;;;;;10448016;28;20268;-74
2021/07/17 22:51:10;;;;;;;11.77;10.83;;;23.90;46.90;;;;;;10452093;28;20316;-74
2021/07/17 22:56:14;;;;;;;14.50;13.07;;;23.80;46.50;;;;;;10446278;28;20225;-74
2021/07/17 23:01:21;;;;;;;12.63;11.53;;;23.80;47.00;;;;;;10451852;28;20233;-74
2021/07/17 23:06:25;;;;;;;13.10;11.90;;;23.70;47.30;;;;;;10450324;28;20221;-74
2021/07/17 23:11:28;;;;;;;14.10;12.70;;;23.60;47.00;;;;;;10448016;28;20264;-74
2021/07/17 23:16:32;;;;;;;13.60;12.47;;;23.60;47.10;;;;;;10452389;28;20224;-75
2021/07/17 23:21:36;;;;;;;13.47;12.20;;;23.60;47.60;;;;;;10450943;28;20233;-74
2021/07/17 23:26:39;;;;;;;12.00;11.00;;;23.60;47.30;;;;;;10449459;28;20224;-74
2021/07/17 23:31:44;;;;;;;13.47;12.07;;;23.60;47.30;;;;;;10454158;28;20239;-74
2021/07/17 23:36:48;;;;;;;14.40;13.00;;;23.50;47.80;;;;;;10450667;28;20233;-74
2021/07/17 23:41:51;;;;;;;13.77;12.53;;;23.50;47.40;;;;;;10449451;28;20240;-74
2021/07/17 23:46:55;;;;;;;13.57;12.37;;;23.50;47.40;;;;;;10445070;28;20609;-74
2021/07/17 23:51:59;;;;;;;12.80;11.70;;;23.50;48.10;;;;;;10447400;28;20236;-74
2021/07/17 23:57:03;;;;;;;14.97;13.47;;;23.40;47.60;;;;;;10454949;28;20245;-74
